Nagaleader — VRDD5 — position and weather

sailwx.info

Track history (hours):
 
Tides and Currents Weather Stations Pressure Air Temp Water Temp Dewpoint Dewpoint Depression Visibility Wind Speed Wind Dir Waves Ship Positions

Nagaleader

Last reported at 2017-Nov-17 18:16 UTC. Time now 2017-Nov-21 14:05 UTC.
Position N 22°55' E 119°48'.

Length 113 m; draft 5.8 m.

Type: Cargo ship. MMSI: 477926700.

Date/timePositionNaut miles runAvg speedWind from/ knotsBaromVisibWave heightAir tempDewpointWater temp
2017-Nov-17 18:16N 22°55' E 119°48'312.1
2017-Nov-17 18:00N 22°52' E 119°50'612.2
2017-Nov-17 17:30N 22°48' E 119°55'612.4
2017-Nov-17 17:01N 22°43' E 119°59'612.6
2017-Nov-17 16:30N 22°39' E 120°04'612.6
2017-Nov-17 16:00N 22°34' E 120°09'611.3
2017-Nov-17 15:30N 22°33' E 120°15'4 7.9
2017-Nov-17 15:01N 22°34' E 120°19'0 0.2
2017-Nov-17 14:29N 22°34' E 120°19'0 0.0
2017-Nov-17 13:35N 22°34' E 120°19'0 0.0
2017-Nov-17 13:26N 22°34' E 120°19'0 0.0
2017-Nov-17 12:59N 22°34' E 120°19'0 0.0
2017-Nov-17 12:29N 22°34' E 120°19'0 0.0
2017-Nov-17 11:59N 22°34' E 120°19'0 0.0
2017-Nov-17 10:14N 22°34' E 120°19'0 0.0
2017-Nov-17 09:59N 22°34' E 120°19'0 0.0
2017-Nov-17 09:26N 22°34' E 120°19'0 0.0
2017-Nov-17 08:59N 22°34' E 120°19'0 0.0
2017-Nov-17 08:29N 22°34' E 120°19'0 0.0
2017-Nov-17 07:59N 22°34' E 120°19'0 0.0
2017-Nov-17 07:23N 22°34' E 120°19'0 0.0
2017-Nov-17 06:59N 22°34' E 120°19'1 0.1
2017-Nov-16 23:10N 22°33' E 120°20'1 6.2
2017-Nov-16 23:00N 22°33' E 120°19'4 7.4
2017-Nov-16 22:30N 22°32' E 120°15'3 5.8
2017-Nov-16 22:00N 22°30' E 120°12'0 0.7
2017-Nov-16 21:30N 22°31' E 120°12'3 5.7
2017-Nov-16 21:00N 22°33' E 120°11'612.8
2017-Nov-16 20:30N 22°39' E 120°09'612.3
2017-Nov-16 20:00N 22°45' E 120°07'  
2017-Nov-14 07:30N 22°50' E 119°59'612.1
2017-Nov-14 07:00N 22°45' E 120°02'612.2
2017-Nov-14 06:30N 22°41' E 120°08'611.5
2017-Nov-14 06:00N 22°38' E 120°13'4 8.3
2017-Nov-14 05:30N 22°36' E 120°17'3 6.2
2017-Nov-14 05:00N 22°34' E 120°19'0 0.1
2017-Nov-14 04:28N 22°34' E 120°19'0 0.0
2017-Nov-14 03:58N 22°34' E 120°19'0 0.0
2017-Nov-14 03:25N 22°34' E 120°19'0 0.0
2017-Nov-14 02:55N 22°34' E 120°19'0 0.0
2017-Nov-14 02:28N 22°34' E 120°19'0 0.0
2017-Nov-14 01:55N 22°34' E 120°19'0 0.0
2017-Nov-14 01:28N 22°34' E 120°19'0 0.0
2017-Nov-14 00:58N 22°34' E 120°19'0 0.0
2017-Nov-14 00:07N 22°34' E 120°19'0 0.0
2017-Nov-13 23:58N 22°34' E 120°19'0 0.0
2017-Nov-13 23:28N 22°34' E 120°19'0 0.0
2017-Nov-13 22:58N 22°34' E 120°19'0 0.0
2017-Nov-13 22:25N 22°34' E 120°19'0 0.0
2017-Nov-13 21:58N 22°34' E 120°19'  
2017-Nov-10 21:36N 22°47' E 119°54'211.7
2017-Nov-10 21:28N 22°46' E 119°55'612.1
2017-Nov-10 21:00N 22°42' E 119°59'612.5
2017-Nov-10 20:30N 22°39' E 120°05'612.8
2017-Nov-10 20:00N 22°34' E 120°10'611.7
2017-Nov-10 19:30N 22°33' E 120°16'4 7.6
2017-Nov-10 19:00N 22°33' E 120°20'1 0.1
2017-Nov-10 10:20N 22°33' E 120°20'1 3.5
2017-Nov-10 09:59N 22°34' E 120°19'0 0.0
2017-Nov-10 09:29N 22°34' E 120°19'0 0.0
2017-Nov-10 08:59N 22°34' E 120°19'0 0.0
2017-Nov-10 08:23N 22°34' E 120°19'0 0.0
2017-Nov-10 07:59N 22°34' E 120°19'0 0.0
2017-Nov-10 07:29N 22°34' E 120°19'0 0.0
2017-Nov-10 06:59N 22°34' E 120°19'0 0.0
2017-Nov-10 06:29N 22°34' E 120°19'0 0.0
2017-Nov-10 05:59N 22°34' E 120°19'0 0.0
2017-Nov-10 05:29N 22°34' E 120°19'0 0.4
2017-Nov-10 05:00N 22°34' E 120°19'2 4.7
2017-Nov-10 04:30N 22°32' E 120°17'1 2.0
2017-Nov-10 04:00N 22°32' E 120°16'1 2.5
2017-Nov-10 03:30N 22°32' E 120°14'2 4.3
2017-Nov-10 03:00N 22°30' E 120°14'0 0.9
2017-Nov-10 02:30N 22°30' E 120°14'0 0.7
2017-Nov-10 02:00N 22°30' E 120°14'0 0.8
2017-Nov-10 01:30N 22°30' E 120°13'0 0.5
2017-Nov-10 01:00N 22°31' E 120°13'0 0.5
2017-Nov-10 00:30N 22°31' E 120°13'0 0.8
2017-Nov-10 00:00N 22°31' E 120°12'5 9.7
2017-Nov-09 23:30N 22°35' E 120°10'611.8
2017-Nov-09 23:00N 22°41' E 120°08'612.0
2017-Nov-09 22:30N 22°46' E 120°06'  
Track history (hours):
 
Tides and Currents Weather Stations Pressure Air Temp Water Temp Dewpoint Dewpoint Depression Visibility Wind Speed Wind Dir Waves Ship Positions

Nagaleader

Last reported at 2017-Nov-17 18:16 UTC. Time now 2017-Nov-21 14:05 UTC.
Position N 22°55' E 119°48'.

Length 113 m; draft 5.8 m.

Type: Cargo ship. MMSI: 477926700.

Date/timePositionNaut miles runAvg speedWind from/ knotsBaromVisibWave heightAir tempDewpointWater temp
2017-Nov-17 18:16N 22°55' E 119°48'312.1
2017-Nov-17 18:00N 22°52' E 119°50'612.2
2017-Nov-17 17:30N 22°48' E 119°55'612.4
2017-Nov-17 17:01N 22°43' E 119°59'612.6
2017-Nov-17 16:30N 22°39' E 120°04'612.6
2017-Nov-17 16:00N 22°34' E 120°09'611.3
2017-Nov-17 15:30N 22°33' E 120°15'4 7.9
2017-Nov-17 15:01N 22°34' E 120°19'0 0.2
2017-Nov-17 14:29N 22°34' E 120°19'0 0.0
2017-Nov-17 13:35N 22°34' E 120°19'0 0.0
2017-Nov-17 13:26N 22°34' E 120°19'0 0.0
2017-Nov-17 12:59N 22°34' E 120°19'0 0.0
2017-Nov-17 12:29N 22°34' E 120°19'0 0.0
2017-Nov-17 11:59N 22°34' E 120°19'0 0.0
2017-Nov-17 10:14N 22°34' E 120°19'0 0.0
2017-Nov-17 09:59N 22°34' E 120°19'0 0.0
2017-Nov-17 09:26N 22°34' E 120°19'0 0.0
2017-Nov-17 08:59N 22°34' E 120°19'0 0.0
2017-Nov-17 08:29N 22°34' E 120°19'0 0.0
2017-Nov-17 07:59N 22°34' E 120°19'0 0.0
2017-Nov-17 07:23N 22°34' E 120°19'0 0.0
2017-Nov-17 06:59N 22°34' E 120°19'1 0.1
2017-Nov-16 23:10N 22°33' E 120°20'1 6.2
2017-Nov-16 23:00N 22°33' E 120°19'4 7.4
2017-Nov-16 22:30N 22°32' E 120°15'3 5.8
2017-Nov-16 22:00N 22°30' E 120°12'0 0.7
2017-Nov-16 21:30N 22°31' E 120°12'3 5.7
2017-Nov-16 21:00N 22°33' E 120°11'612.8
2017-Nov-16 20:30N 22°39' E 120°09'612.3
2017-Nov-16 20:00N 22°45' E 120°07'  
2017-Nov-14 07:30N 22°50' E 119°59'612.1
2017-Nov-14 07:00N 22°45' E 120°02'612.2
2017-Nov-14 06:30N 22°41' E 120°08'611.5
2017-Nov-14 06:00N 22°38' E 120°13'4 8.3
2017-Nov-14 05:30N 22°36' E 120°17'3 6.2
2017-Nov-14 05:00N 22°34' E 120°19'0 0.1
2017-Nov-14 04:28N 22°34' E 120°19'0 0.0
2017-Nov-14 03:58N 22°34' E 120°19'0 0.0
2017-Nov-14 03:25N 22°34' E 120°19'0 0.0
2017-Nov-14 02:55N 22°34' E 120°19'0 0.0
2017-Nov-14 02:28N 22°34' E 120°19'0 0.0
2017-Nov-14 01:55N 22°34' E 120°19'0 0.0
2017-Nov-14 01:28N 22°34' E 120°19'0 0.0
2017-Nov-14 00:58N 22°34' E 120°19'0 0.0
2017-Nov-14 00:07N 22°34' E 120°19'0 0.0
2017-Nov-13 23:58N 22°34' E 120°19'0 0.0
2017-Nov-13 23:28N 22°34' E 120°19'0 0.0
2017-Nov-13 22:58N 22°34' E 120°19'0 0.0
2017-Nov-13 22:25N 22°34' E 120°19'0 0.0
2017-Nov-13 21:58N 22°34' E 120°19'  
2017-Nov-10 21:36N 22°47' E 119°54'211.7
2017-Nov-10 21:28N 22°46' E 119°55'612.1
2017-Nov-10 21:00N 22°42' E 119°59'612.5
2017-Nov-10 20:30N 22°39' E 120°05'612.8
2017-Nov-10 20:00N 22°34' E 120°10'611.7
2017-Nov-10 19:30N 22°33' E 120°16'4 7.6
2017-Nov-10 19:00N 22°33' E 120°20'1 0.1
2017-Nov-10 10:20N 22°33' E 120°20'1 3.5
2017-Nov-10 09:59N 22°34' E 120°19'0 0.0
2017-Nov-10 09:29N 22°34' E 120°19'0 0.0
2017-Nov-10 08:59N 22°34' E 120°19'0 0.0
2017-Nov-10 08:23N 22°34' E 120°19'0 0.0
2017-Nov-10 07:59N 22°34' E 120°19'0 0.0
2017-Nov-10 07:29N 22°34' E 120°19'0 0.0
2017-Nov-10 06:59N 22°34' E 120°19'0 0.0
2017-Nov-10 06:29N 22°34' E 120°19'0 0.0
2017-Nov-10 05:59N 22°34' E 120°19'0 0.0
2017-Nov-10 05:29N 22°34' E 120°19'0 0.4
2017-Nov-10 05:00N 22°34' E 120°19'2 4.7
2017-Nov-10 04:30N 22°32' E 120°17'1 2.0
2017-Nov-10 04:00N 22°32' E 120°16'1 2.5
2017-Nov-10 03:30N 22°32' E 120°14'2 4.3
2017-Nov-10 03:00N 22°30' E 120°14'0 0.9
2017-Nov-10 02:30N 22°30' E 120°14'0 0.7
2017-Nov-10 02:00N 22°30' E 120°14'0 0.8
2017-Nov-10 01:30N 22°30' E 120°13'0 0.5
2017-Nov-10 01:00N 22°31' E 120°13'0 0.5
2017-Nov-10 00:30N 22°31' E 120°13'0 0.8
2017-Nov-10 00:00N 22°31' E 120°12'5 9.7
2017-Nov-09 23:30N 22°35' E 120°10'611.8
2017-Nov-09 23:00N 22°41' E 120°08'612.0
2017-Nov-09 22:30N 22°46' E 120°06'  

Dump ship's entire track history